createdAt,value
2018-04-27T00:01:37.198Z,9.30
2018-04-27T00:04:06.190Z,10.18
2018-04-27T00:06:35.198Z,8.88
2018-04-27T00:09:04.188Z,10.88
2018-04-27T00:11:32.441Z,9.85
2018-04-27T00:14:01.436Z,9.00
2018-04-27T00:16:29.667Z,13.13
2018-04-27T00:18:57.927Z,9.55
2018-04-27T00:21:26.162Z,12.43
2018-04-27T00:23:55.150Z,12.27
2018-04-27T00:26:24.150Z,11.18
2018-04-27T00:28:53.179Z,10.80
2018-04-27T00:31:21.455Z,11.02
2018-04-27T00:33:49.700Z,12.45
2018-04-27T00:36:18.724Z,10.35
2018-04-27T00:38:46.990Z,12.25
2018-04-27T00:41:15.269Z,15.32
2018-04-27T00:43:43.550Z,11.88
2018-04-27T00:46:11.838Z,12.98
2018-04-27T00:48:40.074Z,14.52
2018-04-27T00:51:09.090Z,11.50
2018-04-27T00:53:37.369Z,14.32
2018-04-27T00:56:05.603Z,15.25
2018-04-27T00:58:34.635Z,12.35
2018-04-27T01:01:02.869Z,11.20
2018-04-27T01:03:31.879Z,11.35
2018-04-27T01:06:00.118Z,10.70
2018-04-27T01:08:28.462Z,11.43
2018-04-27T01:10:56.701Z,11.38
2018-04-27T01:13:25.735Z,9.73
2018-04-27T01:15:53.986Z,9.25
2018-04-27T01:18:23.040Z,12.32
2018-04-27T01:20:51.263Z,9.65
2018-04-27T01:23:19.548Z,10.88
2018-04-27T01:25:47.800Z,10.07
2018-04-27T01:28:16.043Z,11.77
2018-04-27T01:30:44.296Z,10.25
2018-04-27T01:33:12.541Z,12.20
2018-04-27T01:35:40.788Z,11.50
2018-04-27T01:38:09.920Z,11.40
2018-04-27T01:40:38.168Z,17.27
2018-04-27T01:43:06.478Z,11.35
2018-04-27T01:45:34.724Z,11.40
2018-04-27T01:48:02.961Z,14.48
2018-04-27T01:50:31.296Z,12.57
2018-04-27T01:52:59.571Z,12.07
2018-04-27T01:55:27.823Z,11.82
2018-04-27T01:57:56.062Z,10.98
2018-04-27T02:00:24.390Z,11.68
2018-04-27T02:02:52.668Z,12.13
2018-04-27T02:05:20.909Z,11.00
2018-04-27T02:07:49.948Z,12.05
2018-04-27T02:10:18.183Z,15.90
2018-04-27T02:12:47.196Z,15.63
2018-04-27T02:15:15.430Z,17.23
2018-04-27T02:17:43.762Z,15.35
2018-04-27T02:20:12.033Z,15.50
2018-04-27T02:22:40.280Z,15.20
2018-04-27T02:25:09.285Z,18.25
2018-04-27T02:27:37.574Z,12.40
2018-04-27T02:30:05.817Z,13.00
2018-04-27T02:32:34.846Z,13.25
2018-04-27T02:35:03.086Z,10.60
2018-04-27T02:37:32.092Z,10.95
2018-04-27T02:40:00.383Z,13.62
2018-04-27T02:42:28.665Z,9.63
2018-04-27T02:44:56.904Z,8.57
2018-04-27T02:47:25.928Z,12.55
2018-04-27T02:49:54.208Z,9.45
2018-04-27T02:52:22.427Z,9.52
2018-04-27T02:54:50.711Z,9.65
2018-04-27T02:57:18.904Z,10.27
2018-04-27T02:59:47.911Z,10.00
2018-04-27T03:02:16.197Z,12.20
2018-04-27T03:04:44.445Z,11.57
2018-04-27T03:07:13.438Z,8.68
2018-04-27T03:09:42.443Z,14.82
2018-04-27T03:12:10.744Z,12.10
2018-04-27T03:14:39.019Z,15.68
2018-04-27T03:17:07.263Z,14.30
2018-04-27T03:19:36.274Z,16.92
2018-04-27T03:22:04.554Z,14.10
2018-04-27T03:24:32.830Z,13.60
2018-04-27T03:27:01.080Z,13.65
2018-04-27T03:29:29.314Z,13.75
2018-04-27T03:31:57.550Z,14.18
2018-04-27T03:34:25.878Z,12.57
2018-04-27T03:36:54.114Z,11.05
2018-04-27T03:39:22.386Z,13.52
2018-04-27T03:41:50.632Z,11.52
2018-04-27T03:44:19.655Z,11.45
2018-04-27T03:46:47.941Z,13.80
2018-04-27T03:49:16.208Z,14.02
2018-04-27T03:51:44.473Z,12.82
2018-04-27T03:54:12.730Z,11.68
2018-04-27T03:56:41.878Z,14.87
2018-04-27T03:59:10.110Z,14.82
2018-04-27T04:01:50.383Z,13.52
2018-04-27T04:04:30.478Z,10.82
2018-04-27T04:06:58.729Z,12.65
2018-04-27T04:09:27.807Z,12.18
2018-04-27T04:11:56.046Z,10.95
2018-04-27T04:14:25.051Z,14.57
2018-04-27T04:16:53.299Z,11.20
2018-04-27T04:19:21.634Z,14.95
2018-04-27T04:21:49.907Z,11.80
2018-04-27T04:24:18.151Z,10.98
2018-04-27T04:26:47.188Z,13.55
2018-04-27T04:29:15.444Z,10.13
2018-04-27T04:31:43.731Z,12.60
2018-04-27T04:34:12.000Z,14.77
2018-04-27T04:36:40.235Z,12.73
2018-04-27T04:39:09.262Z,14.95
2018-04-27T04:41:37.548Z,10.68
2018-04-27T04:44:05.783Z,11.80
2018-04-27T04:46:34.813Z,12.70
2018-04-27T04:49:03.071Z,12.48
2018-04-27T04:51:31.378Z,10.75
2018-04-27T04:53:59.640Z,11.38
2018-04-27T04:56:27.905Z,11.80
2018-04-27T04:58:56.150Z,11.10
2018-04-27T05:01:25.142Z,9.77
2018-04-27T05:03:54.159Z,10.70
2018-04-27T05:06:22.415Z,12.25
2018-04-27T05:08:50.636Z,10.02
2018-04-27T05:11:18.871Z,13.95
2018-04-27T05:13:47.201Z,11.30
2018-04-27T05:16:15.428Z,8.98
2018-04-27T05:18:53.645Z,10.60
2018-04-27T05:21:21.882Z,10.15
2018-04-27T05:23:51.010Z,9.48
2018-04-27T05:26:19.257Z,10.52
2018-04-27T05:28:48.288Z,12.73
2018-04-27T05:31:23.351Z,9.35
2018-04-27T05:33:51.697Z,9.20
2018-04-27T05:36:19.974Z,10.35
2018-04-27T05:38:48.222Z,9.10
2018-04-27T05:41:17.231Z,10.50
2018-04-27T05:43:45.518Z,9.43
2018-04-27T05:46:13.778Z,12.17
2018-04-27T05:48:42.063Z,11.07
2018-04-27T05:51:10.327Z,9.00
2018-04-27T05:53:38.618Z,9.13
2018-04-27T05:56:06.890Z,9.10
2018-04-27T05:58:35.136Z,7.83
2018-04-27T06:01:04.152Z,9.03
2018-04-27T06:03:44.352Z,12.30
2018-04-27T06:06:12.705Z,8.63
2018-04-27T06:08:40.950Z,9.67
2018-04-27T06:11:09.258Z,9.37
2018-04-27T06:13:37.522Z,9.10
2018-04-27T06:16:05.820Z,12.37
2018-04-27T06:18:34.773Z,9.77
2018-04-27T06:21:03.067Z,10.03
2018-04-27T06:23:31.310Z,9.30
2018-04-27T06:26:00.307Z,7.90
2018-04-27T06:28:28.556Z,7.13
2018-04-27T06:30:56.986Z,8.33
2018-04-27T06:33:25.226Z,7.57
2018-04-27T06:35:54.221Z,5.97
2018-04-27T06:38:23.230Z,9.77
2018-04-27T06:40:51.523Z,8.37
2018-04-27T06:43:19.758Z,7.07
2018-04-27T06:45:48.001Z,8.50
2018-04-27T06:48:16.242Z,8.10
2018-04-27T06:50:44.523Z,6.90
2018-04-27T06:53:12.797Z,8.00
2018-04-27T06:55:41.078Z,8.37
2018-04-27T06:58:09.368Z,8.07
2018-04-27T07:00:37.740Z,7.43
2018-04-27T07:03:05.981Z,10.67
2018-04-27T07:05:35.098Z,8.70
2018-04-27T07:08:03.330Z,9.10
2018-04-27T07:10:32.334Z,6.07
2018-04-27T07:13:01.339Z,7.53
2018-04-27T07:15:29.649Z,7.03
2018-04-27T07:17:57.915Z,6.80
2018-04-27T07:20:26.150Z,8.63
2018-04-27T07:22:55.188Z,6.50
2018-04-27T07:25:23.468Z,7.83
2018-04-27T07:27:51.729Z,6.40
2018-04-27T07:30:19.970Z,7.93
2018-04-27T07:32:48.972Z,9.43
2018-04-27T07:35:17.991Z,7.77
2018-04-27T07:37:46.267Z,5.57
2018-04-27T07:40:14.543Z,6.63
2018-04-27T07:42:42.831Z,5.97
2018-04-27T07:45:11.115Z,6.93
2018-04-27T07:47:39.326Z,8.03
2018-04-27T07:50:08.360Z,6.20
2018-04-27T07:52:36.610Z,7.07
2018-04-27T07:55:05.606Z,10.10
2018-04-27T07:57:33.858Z,8.67
2018-04-27T08:00:02.083Z,8.47
2018-04-27T08:02:30.344Z,7.63
2018-04-27T08:04:59.339Z,6.70
2018-04-27T08:07:27.622Z,8.67
2018-04-27T08:09:55.858Z,12.43
2018-04-27T08:12:24.922Z,9.53
2018-04-27T08:14:53.154Z,9.50
2018-04-27T08:17:21.435Z,7.37
2018-04-27T08:19:49.718Z,7.77
2018-04-27T08:22:17.955Z,8.67
2018-04-27T08:24:46.986Z,9.43
2018-04-27T08:27:15.219Z,6.10
2018-04-27T08:29:44.246Z,11.03
2018-04-27T08:32:12.490Z,6.00
2018-04-27T08:34:41.496Z,8.87
2018-04-27T08:37:09.795Z,6.73
2018-04-27T08:39:38.030Z,8.00
2018-04-27T08:42:07.166Z,5.77
2018-04-27T08:44:35.444Z,6.00
2018-04-27T08:47:03.674Z,4.00
2018-04-27T08:49:32.707Z,4.83
2018-04-27T08:52:00.978Z,7.00
2018-04-27T08:54:29.228Z,6.33
2018-04-27T08:56:58.300Z,10.13
2018-04-27T08:59:26.511Z,6.43
2018-04-27T09:01:54.815Z,7.87
2018-04-27T09:04:23.055Z,9.40
2018-04-27T09:06:51.296Z,6.93
2018-04-27T09:09:19.539Z,5.27
2018-04-27T09:11:47.775Z,6.10
2018-04-27T09:14:16.800Z,5.17
2018-04-27T09:16:45.076Z,6.87
2018-04-27T09:19:13.319Z,4.07
2018-04-27T09:21:42.329Z,7.23
2018-04-27T09:24:10.563Z,6.50
2018-04-27T09:26:38.798Z,5.37
2018-04-27T09:29:07.050Z,4.43
2018-04-27T09:31:35.279Z,5.60
2018-04-27T09:34:03.526Z,5.70
2018-04-27T09:36:31.782Z,6.17
2018-04-27T09:39:00.017Z,4.80
2018-04-27T09:41:28.260Z,6.63
2018-04-27T09:43:56.514Z,4.07
2018-04-27T09:46:24.755Z,4.27
2018-04-27T09:48:53.751Z,6.07
2018-04-27T09:51:22.810Z,5.70
2018-04-27T09:53:51.054Z,5.63
2018-04-27T09:56:19.303Z,4.00
2018-04-27T09:58:48.337Z,5.27
2018-04-27T10:01:16.577Z,7.47
2018-04-27T10:03:44.818Z,4.73
2018-04-27T10:06:13.062Z,6.00
2018-04-27T10:08:41.311Z,3.83
2018-04-27T10:11:09.595Z,5.00
2018-04-27T10:13:37.826Z,5.83
2018-04-27T10:16:06.958Z,6.23
2018-04-27T10:18:35.208Z,4.40
2018-04-27T10:21:04.212Z,7.57
2018-04-27T10:23:32.503Z,4.47
2018-04-27T10:26:00.750Z,5.57
2018-04-27T10:28:29.770Z,5.73
2018-04-27T10:30:58.139Z,5.20
2018-04-27T10:33:26.322Z,2.63
2018-04-27T10:35:54.602Z,3.73
2018-04-27T10:38:22.889Z,3.80
2018-04-27T10:40:51.107Z,4.63
2018-04-27T10:43:20.116Z,3.67
2018-04-27T10:45:49.150Z,3.83
2018-04-27T10:48:17.410Z,5.93
2018-04-27T10:50:45.643Z,6.17
2018-04-27T10:53:13.883Z,5.13
2018-04-27T10:55:42.140Z,3.67
2018-04-27T10:58:10.425Z,2.53
2018-04-27T11:00:38.692Z,4.57
2018-04-27T11:03:06.949Z,3.93
2018-04-27T11:05:35.184Z,6.90
2018-04-27T11:08:03.515Z,4.13
2018-04-27T11:10:31.794Z,2.67
2018-04-27T11:13:00.078Z,4.20
2018-04-27T11:15:28.343Z,5.20
2018-04-27T11:17:56.618Z,5.73
2018-04-27T11:20:24.917Z,4.90
2018-04-27T11:22:53.162Z,4.97
2018-04-27T11:25:21.448Z,4.57
2018-04-27T11:27:49.678Z,4.67
2018-04-27T11:30:18.693Z,4.60
2018-04-27T11:32:46.991Z,5.90
2018-04-27T11:35:15.272Z,4.63
2018-04-27T11:37:43.506Z,4.77
2018-04-27T11:40:12.521Z,5.43
2018-04-27T11:42:40.867Z,6.10
2018-04-27T11:45:09.881Z,3.63
2018-04-27T11:47:38.186Z,6.53
2018-04-27T11:50:06.450Z,6.90
2018-04-27T11:52:34.678Z,4.83
2018-04-27T11:55:02.923Z,3.63
2018-04-27T11:57:31.162Z,7.07
2018-04-27T11:59:59.404Z,4.73
2018-04-27T12:02:27.722Z,4.33
2018-04-27T12:04:56.021Z,6.50
2018-04-27T12:07:24.382Z,4.30
2018-04-27T12:09:52.658Z,5.80
2018-04-27T12:12:20.981Z,6.30
2018-04-27T12:14:49.223Z,6.53
2018-04-27T12:17:18.154Z,4.87
2018-04-27T12:19:46.381Z,6.13
2018-04-27T12:22:14.642Z,3.83
2018-04-27T12:24:42.922Z,4.43
2018-04-27T12:27:11.172Z,4.37
2018-04-27T12:29:40.176Z,3.83
2018-04-27T12:32:08.420Z,4.43
2018-04-27T12:34:36.654Z,5.10
2018-04-27T12:37:04.915Z,4.77
2018-04-27T12:39:33.208Z,3.77
2018-04-27T12:42:01.571Z,4.30
2018-04-27T12:44:29.803Z,3.37
2018-04-27T12:46:58.849Z,4.80
2018-04-27T12:49:27.084Z,3.10
2018-04-27T12:51:56.106Z,6.53
2018-04-27T12:54:24.364Z,3.97
2018-04-27T12:56:53.375Z,3.20
2018-04-27T12:59:21.618Z,4.60
2018-04-27T13:01:50.620Z,5.53
2018-04-27T13:04:18.871Z,4.33
2018-04-27T13:06:47.116Z,6.13
2018-04-27T13:09:15.355Z,3.93
2018-04-27T13:11:43.592Z,3.83
2018-04-27T13:14:11.923Z,4.57
2018-04-27T13:16:40.200Z,2.00
2018-04-27T13:19:08.544Z,4.57
2018-04-27T13:21:36.694Z,4.83
2018-04-27T13:24:04.949Z,4.50
2018-04-27T13:26:33.260Z,3.80
2018-04-27T13:29:01.474Z,4.07
2018-04-27T13:31:29.745Z,5.80
2018-04-27T13:33:57.991Z,6.73
2018-04-27T13:36:26.993Z,5.07
2018-04-27T13:38:55.288Z,4.03
2018-04-27T13:41:23.518Z,4.10
2018-04-27T13:43:52.523Z,4.80
2018-04-27T13:46:21.556Z,4.40
2018-04-27T13:48:49.779Z,4.03
2018-04-27T13:51:18.809Z,4.30
2018-04-27T13:53:47.082Z,3.23
2018-04-27T13:56:15.327Z,3.50
2018-04-27T13:58:44.348Z,5.20
2018-04-27T14:01:12.582Z,2.97
2018-04-27T14:03:40.904Z,3.17
2018-04-27T14:06:09.155Z,3.07
2018-04-27T14:08:38.177Z,4.73
2018-04-27T14:11:06.455Z,6.33
2018-04-27T14:13:34.734Z,6.07
2018-04-27T14:16:02.999Z,2.80
2018-04-27T14:18:31.235Z,3.20
2018-04-27T14:21:00.253Z,4.30
2018-04-27T14:23:28.484Z,4.63
2018-04-27T14:25:56.722Z,5.53
2018-04-27T14:28:24.951Z,4.07
2018-04-27T14:30:53.992Z,3.13
2018-04-27T14:33:22.221Z,4.50
2018-04-27T14:35:51.239Z,5.70
2018-04-27T14:38:19.498Z,3.87
2018-04-27T14:40:48.510Z,7.60
2018-04-27T14:43:16.797Z,6.80
2018-04-27T14:45:45.038Z,5.40
2018-04-27T14:48:14.049Z,6.07
2018-04-27T14:50:42.354Z,7.63
2018-04-27T14:53:10.590Z,5.20
2018-04-27T14:55:39.610Z,4.17
2018-04-27T14:58:07.860Z,5.53
2018-04-27T15:00:36.279Z,3.77
2018-04-27T15:03:04.522Z,4.27
2018-04-27T15:05:32.810Z,2.60
2018-04-27T15:08:01.062Z,3.30
2018-04-27T15:10:29.372Z,3.13
2018-04-27T15:12:57.616Z,4.80
2018-04-27T15:15:25.861Z,5.07
2018-04-27T15:17:54.115Z,6.73
2018-04-27T15:20:22.367Z,4.97
2018-04-27T15:22:50.598Z,2.57
2018-04-27T15:25:19.639Z,7.47
2018-04-27T15:27:47.930Z,2.93
2018-04-27T15:30:16.167Z,4.00
2018-04-27T15:32:44.466Z,4.27
2018-04-27T15:35:12.733Z,3.13
2018-04-27T15:37:40.980Z,3.57
2018-04-27T15:40:10.014Z,5.77
2018-04-27T15:42:38.278Z,3.90
2018-04-27T15:45:06.522Z,7.03
2018-04-27T15:47:34.768Z,3.93
2018-04-27T15:50:03.008Z,3.53
2018-04-27T15:52:31.272Z,6.13
2018-04-27T15:54:59.506Z,3.10
2018-04-27T15:57:28.579Z,4.63
2018-04-27T15:59:57.564Z,5.57
2018-04-27T16:02:25.795Z,3.80
2018-04-27T16:04:54.060Z,3.77
2018-04-27T16:07:22.275Z,4.93
2018-04-27T16:09:50.543Z,3.13
2018-04-27T16:12:18.794Z,4.53
2018-04-27T16:14:47.084Z,2.87
2018-04-27T16:17:15.274Z,4.70
2018-04-27T16:19:43.520Z,5.03
2018-04-27T16:22:12.522Z,3.93
2018-04-27T16:24:40.810Z,4.83
2018-04-27T16:27:09.095Z,4.10
2018-04-27T16:29:37.358Z,4.77
2018-04-27T16:32:05.609Z,3.40
2018-04-27T16:34:34.619Z,3.90
2018-04-27T16:37:02.857Z,3.30
2018-04-27T16:39:31.862Z,3.17
2018-04-27T16:42:00.907Z,3.87
2018-04-27T16:44:29.122Z,3.13
2018-04-27T16:46:58.135Z,4.47
2018-04-27T16:49:26.430Z,3.63
2018-04-27T16:51:54.671Z,3.07
2018-04-27T16:54:23.730Z,4.73
2018-04-27T16:56:51.928Z,3.27
2018-04-27T16:59:20.167Z,3.30
2018-04-27T17:01:48.422Z,4.67
2018-04-27T17:04:16.726Z,6.87
2018-04-27T17:06:44.970Z,3.93
2018-04-27T17:09:13.257Z,5.27
2018-04-27T17:11:41.490Z,4.53
2018-04-27T17:14:10.612Z,2.80
2018-04-27T17:16:38.855Z,5.63
2018-04-27T17:19:07.864Z,7.00
2018-04-27T17:21:36.331Z,5.10
2018-04-27T17:24:04.581Z,6.47
2018-04-27T17:26:34.414Z,5.33
2018-04-27T17:29:03.428Z,3.67
2018-04-27T17:31:32.442Z,6.53
2018-04-27T17:34:00.719Z,7.33
2018-04-27T17:36:28.995Z,4.97
2018-04-27T17:38:57.240Z,9.10
2018-04-27T17:41:26.248Z,4.63
2018-04-27T17:43:54.494Z,6.50
2018-04-27T17:46:23.506Z,5.67
2018-04-27T17:48:52.576Z,6.73
2018-04-27T17:51:20.758Z,6.80
2018-04-27T17:53:49.799Z,4.43
2018-04-27T17:56:18.052Z,5.90
2018-04-27T17:58:46.288Z,4.67
2018-04-27T18:01:14.624Z,8.40
2018-04-27T18:03:42.863Z,5.27
2018-04-27T18:06:11.870Z,8.33
2018-04-27T18:08:40.338Z,3.90
2018-04-27T18:11:09.338Z,6.40
2018-04-27T18:13:37.580Z,5.60
2018-04-27T18:16:05.828Z,8.37
2018-04-27T18:18:34.069Z,4.60
2018-04-27T18:21:02.310Z,3.70
2018-04-27T18:23:30.550Z,5.47
2018-04-27T18:25:58.821Z,5.50
2018-04-27T18:28:27.062Z,8.13
2018-04-27T18:30:55.305Z,3.57
2018-04-27T18:33:23.704Z,7.03
2018-04-27T18:35:51.906Z,6.77
2018-04-27T18:38:20.162Z,8.80
2018-04-27T18:40:48.458Z,6.53
2018-04-27T18:43:16.734Z,6.63
2018-04-27T18:45:44.987Z,8.63
2018-04-27T18:48:14.037Z,5.53
2018-04-27T18:50:42.456Z,8.57
2018-04-27T18:53:10.654Z,5.43
2018-04-27T18:55:38.897Z,5.90
2018-04-27T18:58:07.919Z,8.70
2018-04-27T19:00:38.807Z,5.17
2018-04-27T19:03:07.052Z,6.27
2018-04-27T19:05:35.450Z,5.37
2018-04-27T19:08:03.681Z,7.87
2018-04-27T19:10:34.765Z,12.10
2018-04-27T19:13:03.010Z,10.57
2018-04-27T19:15:31.262Z,8.27
2018-04-27T19:18:02.480Z,7.77
2018-04-27T19:20:41.479Z,11.63
2018-04-27T19:23:11.481Z,13.27
2018-04-27T19:25:50.529Z,9.23
2018-04-27T19:28:19.573Z,9.23
2018-04-27T19:30:47.906Z,6.57
2018-04-27T19:33:16.835Z,8.27
2018-04-27T19:35:45.095Z,7.47
2018-04-27T19:38:14.120Z,10.00
2018-04-27T19:40:42.403Z,10.40
2018-04-27T19:43:10.658Z,8.20
2018-04-27T19:45:38.891Z,7.40
2018-04-27T19:48:07.146Z,9.87
2018-04-27T19:50:38.190Z,11.47
2018-04-27T19:53:06.444Z,14.87
2018-04-27T19:55:34.728Z,11.17
2018-04-27T19:58:02.986Z,8.77
2018-04-27T20:00:34.130Z,13.73
2018-04-27T20:03:02.406Z,12.60
2018-04-27T20:05:30.646Z,9.27
2018-04-27T20:07:59.723Z,12.27
2018-04-27T20:10:30.774Z,11.60
2018-04-27T20:12:59.786Z,7.80
2018-04-27T20:15:36.730Z,6.77
2018-04-27T20:18:06.942Z,7.17
2018-04-27T20:20:35.132Z,7.33
2018-04-27T20:23:04.182Z,10.10
2018-04-27T20:25:32.418Z,9.40
2018-04-27T20:28:01.464Z,9.03
2018-04-27T20:30:32.595Z,11.13
2018-04-27T20:33:00.847Z,8.80
2018-04-27T20:35:29.109Z,7.47
2018-04-27T20:38:02.588Z,14.87
2018-04-27T20:40:31.616Z,11.63
2018-04-27T20:43:04.510Z,13.70
2018-04-27T20:45:32.760Z,11.50
2018-04-27T20:48:01.003Z,13.03
2018-04-27T20:50:29.335Z,11.87
2018-04-27T20:52:59.383Z,9.17
2018-04-27T20:55:27.622Z,7.67
2018-04-27T20:57:55.861Z,9.70
2018-04-27T21:00:29.751Z,9.48
2018-04-27T21:02:58.000Z,8.77
2018-04-27T21:05:26.243Z,11.93
2018-04-27T21:07:54.503Z,13.07
2018-04-27T21:10:22.779Z,11.30
2018-04-27T21:12:52.478Z,13.25
2018-04-27T21:15:21.499Z,11.40
2018-04-27T21:17:49.836Z,9.18
2018-04-27T21:20:18.991Z,8.52
2018-04-27T21:22:47.234Z,11.23
2018-04-27T21:28:17.119Z,8.30
2018-04-27T21:30:45.466Z,9.57
2018-04-27T21:33:13.716Z,9.77
2018-04-27T21:38:49.487Z,10.98
2018-04-27T21:41:31.515Z,6.90
2018-04-27T21:44:13.713Z,7.65
2018-04-27T21:46:41.959Z,9.55
2018-04-27T21:49:14.171Z,10.73
2018-04-27T21:51:58.310Z,9.32
2018-04-27T21:54:28.325Z,4.87
2018-04-27T21:57:00.318Z,7.87
2018-04-27T22:02:36.535Z,6.37
2018-04-27T22:05:16.068Z,9.52
2018-04-27T22:07:45.090Z,6.43
2018-04-27T22:10:13.375Z,5.57
2018-04-27T22:12:45.131Z,6.35
2018-04-27T22:15:13.406Z,7.78
2018-04-27T22:17:41.645Z,6.93
2018-04-27T22:20:11.598Z,5.55
2018-04-27T22:22:42.769Z,8.95
2018-04-27T22:25:16.846Z,6.75
2018-04-27T22:27:47.634Z,8.10
2018-04-27T22:30:24.503Z,8.32
2018-04-27T22:32:52.786Z,6.57
2018-04-27T22:35:21.989Z,9.07
2018-04-27T22:37:51.590Z,10.27
2018-04-27T22:43:19.024Z,9.10
2018-04-27T22:45:53.830Z,9.55
2018-04-27T22:48:26.035Z,7.60
2018-04-27T22:51:01.031Z,5.95
2018-04-27T22:53:42.970Z,10.60
2018-04-27T22:56:31.880Z,5.72
2018-04-27T22:59:00.884Z,6.05
2018-04-27T23:01:29.134Z,8.93
2018-04-27T23:03:59.030Z,6.68
2018-04-27T23:06:27.267Z,6.03
2018-04-27T23:08:55.520Z,12.55
2018-04-27T23:11:23.771Z,7.53
2018-04-27T23:13:55.236Z,8.27
2018-04-27T23:16:24.256Z,8.43
2018-04-27T23:18:53.689Z,7.28
2018-04-27T23:21:27.803Z,7.03
2018-04-27T23:23:56.036Z,6.03
2018-04-27T23:26:24.356Z,5.78
2018-04-27T23:28:52.595Z,6.60
2018-04-27T23:31:20.853Z,7.87
2018-04-27T23:33:49.134Z,8.35
2018-04-27T23:36:17.380Z,7.32
2018-04-27T23:38:46.415Z,8.32
2018-04-27T23:41:14.717Z,10.32
2018-04-27T23:43:42.968Z,5.80
2018-04-27T23:46:11.244Z,7.35
2018-04-27T23:48:39.524Z,10.98
2018-04-27T23:51:07.765Z,8.40
2018-04-27T23:53:37.668Z,7.18
2018-04-27T23:56:07.389Z,9.70
2018-04-27T23:58:36.420Z,7.55
